Time;durP1;ratioP1;P1;durP2;ratioP2;P2;SDS_P1;SDS_P2;PMS_P1;PMS_P2;Temp;Humidity;BMP_temperature;BMP_pressure;BME280_temperature;BME280_humidity;BME280_pressure;Samples;Min_cycle;Max_cycle;Signal;HPM_P1;HPM_P2
2023/09/06 00:01:59;;;;;;;;;;;20.10;99.90;;;;;;15677773;22;20442;-35
2023/09/06 00:08:05;;;;;;;;;;;20.10;99.90;;;;;;15678995;22;20005;-35
2023/09/06 00:14:07;;;;;;;;;;;19.80;99.90;;;;;;15680292;22;20245;-35
2023/09/06 00:20:21;;;;;;;;;;;19.80;99.90;;;;;;15682438;22;19922;-35
2023/09/06 00:26:23;;;;;;;;;;;19.70;99.90;;;;;;15679440;22;20372;-35
2023/09/06 00:32:25;;;;;;;;;;;19.10;99.90;;;;;;15683676;22;20029;-35
2023/09/06 00:38:28;;;;;;;;;;;19.20;99.90;;;;;;15677645;22;20406;-35
2023/09/06 00:44:31;;;;;;;;;;;19.40;99.90;;;;;;15674629;22;19923;-36
2023/09/06 00:50:33;;;;;;;;;;;19.50;99.90;;;;;;15683961;22;19922;-35
2023/09/06 00:56:35;;;;;;;;;;;19.50;99.90;;;;;;15688154;22;20010;-35
2023/09/06 01:02:38;;;;;;;;;;;19.50;99.90;;;;;;15701397;22;20356;-35
2023/09/06 01:08:46;;;;;;;;;;;19.40;99.90;;;;;;15694964;22;20363;-35
2023/09/06 01:14:47;;;;;;;;;;;19.20;99.90;;;;;;15672151;22;20291;-35
2023/09/06 01:20:51;;;;;;;;;;;19.10;99.90;;;;;;15707074;22;20007;-35
2023/09/06 01:26:53;;;;;;;;;;;19.20;99.90;;;;;;15673127;22;19926;-35
2023/09/06 01:32:55;;;;;;;;;;;19.10;99.90;;;;;;15700901;22;20036;-36
2023/09/06 01:38:57;;;;;;;;;;;19.20;99.90;;;;;;15671517;22;19930;-35
2023/09/06 01:44:59;;;;;;;;;;;19.00;99.90;;;;;;15698917;22;19954;-35
2023/09/06 01:51:01;;;;;;;;;;;18.90;99.90;;;;;;15706262;22;19927;-35
2023/09/06 01:57:02;;;;;;;;;;;18.80;99.90;;;;;;15684415;22;20267;-35
2023/09/06 02:03:09;;;;;;;;;;;18.80;99.90;;;;;;15671469;22;19930;-35
2023/09/06 02:09:11;;;;;;;;;;;18.60;99.90;;;;;;15670503;22;20009;-36
2023/09/06 02:15:14;;;;;;;;;;;18.60;99.90;;;;;;15681872;22;19998;-35
2023/09/06 02:21:16;;;;;;;;;;;18.60;99.90;;;;;;15676399;22;19922;-35
2023/09/06 02:27:18;;;;;;;;;;;18.40;99.90;;;;;;15689206;22;19918;-35
2023/09/06 02:33:20;;;;;;;;;;;18.40;99.90;;;;;;15648994;22;20104;-35
2023/09/06 02:39:22;;;;;;;;;;;18.50;99.90;;;;;;15678868;22;19929;-35
2023/09/06 02:45:24;;;;;;;;;;;18.50;99.90;;;;;;15686508;22;20009;-36
2023/09/06 02:51:29;;;;;;;;;;;18.50;99.90;;;;;;15675689;22;19990;-36
2023/09/06 02:57:31;;;;;;;;;;;18.50;99.90;;;;;;15687549;22;20212;-36
2023/09/06 03:03:33;;;;;;;;;;;18.50;99.90;;;;;;15699211;22;20344;-35
2023/09/06 03:09:35;;;;;;;;;;;18.40;99.90;;;;;;15697443;22;19923;-36
2023/09/06 03:15:37;;;;;;;;;;;18.70;99.90;;;;;;15700741;22;19930;-36
2023/09/06 03:21:39;;;;;;;;;;;18.70;99.90;;;;;;15699291;22;20565;-36
2023/09/06 03:27:44;;;;;;;;;;;18.60;99.90;;;;;;15673487;22;19965;-36
2023/09/06 03:33:46;;;;;;;;;;;18.40;99.90;;;;;;15699439;22;19930;-36
2023/09/06 03:39:50;;;;;;;;;;;18.20;99.90;;;;;;15699516;22;20351;-36
2023/09/06 03:45:53;;;;;;;;;;;18.20;99.90;;;;;;15701385;22;20001;-35
2023/09/06 03:51:54;;;;;;;;;;;18.30;99.90;;;;;;15696814;22;19942;-36
2023/09/06 03:57:56;;;;;;;;;;;18.50;99.90;;;;;;15687045;22;20639;-36
2023/09/06 04:04:00;;;;;;;;;;;18.40;99.90;;;;;;15680445;22;20018;-36
2023/09/06 04:10:06;;;;;;;;;;;18.70;99.90;;;;;;15682564;22;19923;-36
2023/09/06 04:16:09;;;;;;;;;;;18.60;99.90;;;;;;15675977;22;19962;-36
2023/09/06 04:22:12;;;;;;;;;;;18.30;99.90;;;;;;15679171;22;19933;-36
2023/09/06 04:28:15;;;;;;;;;;;18.00;99.90;;;;;;15679132;22;19922;-36
2023/09/06 04:34:17;;;;;;;;;;;17.90;99.90;;;;;;15674011;22;19946;-36
2023/09/06 04:40:19;;;;;;;;;;;17.40;99.90;;;;;;15654451;22;20366;-36
2023/09/06 04:46:21;;;;;;;;;;;17.30;99.90;;;;;;15678084;22;20576;-36
2023/09/06 04:52:24;;;;;;;;;;;17.60;99.90;;;;;;15687973;22;20425;-36
2023/09/06 04:58:26;;;;;;;;;;;17.40;99.90;;;;;;15689896;22;19927;-37
2023/09/06 05:04:30;;;;;;;;;;;17.50;99.90;;;;;;15695969;22;19922;-36
2023/09/06 05:10:37;;;;;;;;;;;17.60;99.90;;;;;;15693298;22;20114;-36
2023/09/06 05:16:40;;;;;;;;;;;17.70;99.90;;;;;;15695885;22;19958;-35
2023/09/06 05:22:42;;;;;;;;;;;17.90;99.90;;;;;;15688059;22;19927;-36
2023/09/06 05:28:44;;;;;;;;;;;17.90;99.90;;;;;;15694330;22;19948;-35
2023/09/06 05:34:45;;;;;;;;;;;17.90;99.90;;;;;;15695920;22;20082;-36
2023/09/06 05:40:50;;;;;;;;;;;18.00;99.90;;;;;;15697215;22;19930;-37
2023/09/06 05:46:52;;;;;;;;;;;18.10;99.90;;;;;;15695010;22;20318;-36
2023/09/06 05:52:54;;;;;;;;;;;18.10;99.90;;;;;;15697154;22;20264;-36
2023/09/06 05:58:56;;;;;;;;;;;18.50;99.90;;;;;;15670297;22;19929;-36
2023/09/06 06:04:57;;;;;;;;;;;18.60;99.90;;;;;;15667648;22;19983;-36
2023/09/06 06:11:01;;;;;;;;;;;18.60;99.90;;;;;;15672629;22;19937;-36
2023/09/06 06:17:06;;;;;;;;;;;18.80;99.90;;;;;;15681780;22;20341;-36
2023/09/06 06:23:08;;;;;;;;;;;18.90;99.90;;;;;;15681655;22;20249;-36
2023/09/06 06:29:10;;;;;;;;;;;18.90;99.90;;;;;;15676326;22;20115;-35
2023/09/06 06:35:12;;;;;;;;;;;18.60;99.90;;;;;;15686950;22;20282;-36
2023/09/06 06:41:22;;;;;;;;;;;18.90;99.90;;;;;;15674099;22;19926;-36
2023/09/06 06:47:24;;;;;;;;;;;19.20;99.90;;;;;;15688343;22;19930;-36
2023/09/06 06:53:26;;;;;;;;;;;19.40;99.90;;;;;;15680633;22;19964;-36
2023/09/06 06:59:28;;;;;;;;;;;19.20;99.90;;;;;;15694110;22;20268;-36
2023/09/06 07:05:30;;;;;;;;;;;19.30;99.90;;;;;;15694974;22;19923;-36
2023/09/06 07:11:31;;;;;;;;;;;19.50;99.90;;;;;;15700042;22;20132;-38
2023/09/06 07:17:33;;;;;;;;;;;19.50;99.90;;;;;;15693805;22;20366;-36
2023/09/06 07:23:35;;;;;;;;;;;19.60;99.90;;;;;;15696825;22;20004;-36
2023/09/06 07:29:37;;;;;;;;;;;19.60;99.90;;;;;;15697833;22;19922;-36
2023/09/06 07:35:42;;;;;;;;;;;19.70;99.90;;;;;;15669724;22;20355;-36
2023/09/06 07:41:44;;;;;;;;;;;20.00;99.90;;;;;;15695710;22;20300;-36
2023/09/06 07:47:45;;;;;;;;;;;20.10;99.90;;;;;;15673014;22;19923;-36
2023/09/06 07:53:47;;;;;;;;;;;20.20;99.90;;;;;;15692583;22;19923;-36
2023/09/06 07:59:49;;;;;;;;;;;20.50;99.90;;;;;;15679520;22;19922;-36
2023/09/06 08:05:51;;;;;;;;;;;20.70;99.90;;;;;;15671540;22;19966;-35
2023/09/06 08:11:53;;;;;;;;;;;20.80;99.90;;;;;;15687031;22;19953;-35
2023/09/06 08:17:55;;;;;;;;;;;21.00;99.90;;;;;;15676410;22;20039;-35
2023/09/06 08:23:57;;;;;;;;;;;21.20;99.90;;;;;;15689436;22;19918;-36
2023/09/06 08:29:58;;;;;;;;;;;21.60;99.90;;;;;;15683256;22;19964;-35
2023/09/06 08:36:00;;;;;;;;;;;22.00;99.90;;;;;;15676658;22;19930;-35
2023/09/06 08:42:03;;;;;;;;;;;22.20;99.90;;;;;;15683176;22;19967;-35
2023/09/06 08:48:06;;;;;;;;;;;22.30;99.90;;;;;;15675832;22;20144;-36
2023/09/06 08:54:09;;;;;;;;;;;22.60;99.90;;;;;;15685312;22;20438;-37
2023/09/06 09:00:13;;;;;;;;;;;22.80;99.90;;;;;;15692253;22;19922;-35
2023/09/06 09:06:15;;;;;;;;;;;23.10;99.90;;;;;;15698371;22;19929;-38
2023/09/06 09:12:17;;;;;;;;;;;23.60;99.90;;;;;;15695713;22;20332;-36
2023/09/06 09:18:19;;;;;;;;;;;24.00;99.90;;;;;;15696139;22;20339;-36
2023/09/06 09:24:27;;;;;;;;;;;24.40;99.90;;;;;;15696593;22;19923;-36
2023/09/06 09:30:31;;;;;;;;;;;24.70;99.90;;;;;;15702164;22;20454;-36
2023/09/06 09:36:34;;;;;;;;;;;25.00;99.90;;;;;;15701953;22;20413;-36
2023/09/06 09:42:35;;;;;;;;;;;25.50;99.90;;;;;;15702468;22;19961;-36
2023/09/06 09:48:39;;;;;;;;;;;26.00;99.90;;;;;;15698331;22;19922;-36
2023/09/06 09:54:42;;;;;;;;;;;26.50;99.90;;;;;;15698706;22;19930;-37
2023/09/06 10:00:44;;;;;;;;;;;26.70;99.90;;;;;;15673844;22;19949;-36
2023/09/06 10:06:46;;;;;;;;;;;26.80;99.90;;;;;;15677691;22;20033;-36
2023/09/06 10:12:49;;;;;;;;;;;27.10;99.90;;;;;;15655368;22;19933;-36
2023/09/06 10:18:50;;;;;;;;;;;27.30;99.90;;;;;;15684846;22;20248;-36
2023/09/06 10:24:52;;;;;;;;;;;27.50;99.90;;;;;;15686568;22;19977;-36
2023/09/06 10:31:07;;;;;;;;;;;27.70;99.90;;;;;;15678440;22;19922;-37
2023/09/06 10:37:09;;;;;;;;;;;28.00;99.90;;;;;;15660562;22;20341;-36
2023/09/06 10:43:11;;;;;;;;;;;28.30;99.90;;;;;;15650818;22;19922;-36
2023/09/06 10:49:14;;;;;;;;;;;28.50;99.90;;;;;;15659172;22;20058;-37
2023/09/06 10:55:22;;;;;;;;;;;28.50;99.90;;;;;;15681084;22;19919;-37
2023/09/06 11:01:24;;;;;;;;;;;28.70;99.90;;;;;;15699103;22;19929;-38
2023/09/06 11:07:36;;;;;;;;;;;28.70;99.90;;;;;;15702965;22;20355;-37
2023/09/06 11:13:50;;;;;;;;;;;29.00;99.90;;;;;;15702180;22;19923;-36
2023/09/06 11:19:52;;;;;;;;;;;29.00;99.90;;;;;;15701187;22;19923;-37
2023/09/06 11:26:00;;;;;;;;;;;29.00;99.90;;;;;;15698939;22;19934;-36
2023/09/06 11:32:09;;;;;;;;;;;29.30;99.90;;;;;;15673816;22;19922;-36
2023/09/06 11:38:11;;;;;;;;;;;29.30;99.90;;;;;;15698830;22;19965;-37
2023/09/06 11:44:14;;;;;;;;;;;29.40;99.90;;;;;;15697947;22;20358;-37
2023/09/06 11:50:18;;;;;;;;;;;29.40;99.90;;;;;;15696713;22;19923;-38
2023/09/06 11:56:29;;;;;;;;;;;29.80;99.90;;;;;;15698276;22;19918;-37
2023/09/06 12:02:34;;;;;;;;;;;29.70;99.90;;;;;;15697018;22;19929;-37
2023/09/06 12:08:38;;;;;;;;;;;29.80;99.90;;;;;;15698506;22;19967;-36
2023/09/06 12:14:42;;;;;;;;;;;29.60;99.90;;;;;;15697574;22;20229;-36
2023/09/06 12:20:43;;;;;;;;;;;29.60;99.90;;;;;;15662558;22;19969;-37
2023/09/06 12:26:47;;;;;;;;;;;29.70;99.90;;;;;;15704466;22;19967;-36
2023/09/06 12:32:49;;;;;;;;;;;29.30;99.90;;;;;;15693102;22;20005;-38
2023/09/06 12:38:52;;;;;;;;;;;29.70;99.90;;;;;;15689115;22;19923;-37
2023/09/06 12:44:54;;;;;;;;;;;29.80;99.90;;;;;;15687836;22;20378;-37
2023/09/06 12:50:55;;;;;;;;;;;29.40;99.90;;;;;;15693046;22;20029;-37
2023/09/06 12:56:58;;;;;;;;;;;28.80;99.90;;;;;;15678431;22;19929;-36
2023/09/06 13:03:01;;;;;;;;;;;29.30;99.90;;;;;;15670805;22;19957;-37
2023/09/06 13:09:04;;;;;;;;;;;28.70;99.90;;;;;;15679394;22;20334;-37
2023/09/06 13:15:06;;;;;;;;;;;28.70;99.90;;;;;;15672937;22;19932;-36
2023/09/06 13:21:08;;;;;;;;;;;28.70;99.90;;;;;;15686963;22;19929;-38
2023/09/06 13:27:10;;;;;;;;;;;29.00;99.90;;;;;;15677495;22;19922;-36
2023/09/06 13:33:12;;;;;;;;;;;28.60;99.90;;;;;;15683715;22;19994;-37
2023/09/06 13:39:15;;;;;;;;;;;28.50;99.90;;;;;;15681912;22;19929;-36
2023/09/06 13:45:17;;;;;;;;;;;28.60;99.90;;;;;;15679284;22;19984;-36
2023/09/06 13:51:20;;;;;;;;;;;28.60;99.90;;;;;;15682139;22;19927;-36
2023/09/06 13:57:22;;;;;;;;;;;28.60;99.90;;;;;;15691913;22;20457;-36
2023/09/06 14:03:27;;;;;;;;;;;28.60;99.90;;;;;;15699360;22;19918;-35
2023/09/06 14:09:29;;;;;;;;;;;28.40;99.90;;;;;;15698831;22;20246;-36
2023/09/06 14:15:32;;;;;;;;;;;28.30;99.90;;;;;;15666697;22;19998;-36
2023/09/06 14:21:35;;;;;;;;;;;28.20;99.90;;;;;;15697364;22;19922;-36
2023/09/06 14:27:36;;;;;;;;;;;28.40;99.90;;;;;;15667688;22;19933;-37
2023/09/06 14:33:38;;;;;;;;;;;28.50;99.90;;;;;;15694555;22;20002;-36
2023/09/06 14:39:41;;;;;;;;;;;28.60;99.90;;;;;;15698805;22;20359;-36
2023/09/06 14:45:43;;;;;;;;;;;28.70;99.90;;;;;;15697232;22;20244;-36
2023/09/06 14:51:45;;;;;;;;;;;28.90;99.90;;;;;;15663944;22;19929;-36
2023/09/06 14:57:47;;;;;;;;;;;29.10;99.90;;;;;;15681377;22;19923;-36
2023/09/06 15:03:48;;;;;;;;;;;29.10;99.90;;;;;;15681602;22;20584;-37
2023/09/06 15:09:50;;;;;;;;;;;29.10;99.90;;;;;;15650706;22;19934;-37
2023/09/06 15:15:52;;;;;;;;;;;29.20;99.90;;;;;;15669140;22;19923;-36
2023/09/06 15:21:56;;;;;;;;;;;28.80;99.90;;;;;;15675668;22;20031;-35
2023/09/06 15:27:58;;;;;;;;;;;29.10;99.90;;;;;;15680214;22;19922;-36
2023/09/06 15:33:59;;;;;;;;;;;29.30;99.90;;;;;;15680086;22;19954;-36
2023/09/06 15:40:01;;;;;;;;;;;29.20;99.90;;;;;;15663278;22;19922;-36
2023/09/06 15:46:03;;;;;;;;;;;29.20;99.90;;;;;;15661629;22;19922;-36
2023/09/06 15:52:05;;;;;;;;;;;29.00;99.90;;;;;;15678541;22;20017;-36
2023/09/06 15:58:09;;;;;;;;;;;28.90;99.90;;;;;;15691124;22;19953;-36
2023/09/06 16:04:10;;;;;;;;;;;28.90;99.90;;;;;;15699425;22;19923;-37
2023/09/06 16:10:12;;;;;;;;;;;28.90;99.90;;;;;;15692429;22;19923;-36
2023/09/06 16:16:14;;;;;;;;;;;29.00;99.90;;;;;;15669173;22;19946;-36
2023/09/06 16:22:16;;;;;;;;;;;29.10;99.90;;;;;;15692996;22;19930;-37
2023/09/06 16:28:18;;;;;;;;;;;29.10;99.90;;;;;;15659479;22;19992;-37
2023/09/06 16:34:20;;;;;;;;;;;29.20;99.90;;;;;;15695441;22;20020;-36
2023/09/06 16:40:23;;;;;;;;;;;29.30;99.90;;;;;;15696684;22;19992;-36
2023/09/06 16:46:26;;;;;;;;;;;29.60;99.90;;;;;;15691019;22;20243;-38
2023/09/06 16:52:28;;;;;;;;;;;29.60;99.90;;;;;;15686602;22;19923;-38
2023/09/06 16:58:29;;;;;;;;;;;29.30;99.90;;;;;;15662582;22;20095;-36
2023/09/06 17:04:32;;;;;;;;;;;29.40;99.90;;;;;;15681741;22;19951;-37
2023/09/06 17:10:34;;;;;;;;;;;29.10;99.90;;;;;;15676359;22;19961;-37
2023/09/06 17:16:36;;;;;;;;;;;29.10;99.90;;;;;;15685392;22;20482;-37
2023/09/06 17:22:38;;;;;;;;;;;28.80;99.90;;;;;;15661540;22;19922;-36
2023/09/06 17:28:41;;;;;;;;;;;28.60;99.90;;;;;;15686326;22;20341;-35
2023/09/06 17:34:43;;;;;;;;;;;28.10;99.90;;;;;;15645794;22;19932;-35
2023/09/06 17:40:46;;;;;;;;;;;27.60;99.90;;;;;;15670116;22;19929;-35
2023/09/06 17:46:48;;;;;;;;;;;27.10;99.90;;;;;;15645027;22;20037;-36
2023/09/06 17:52:51;;;;;;;;;;;26.70;99.90;;;;;;15673015;22;20434;-36
2023/09/06 17:58:53;;;;;;;;;;;26.30;99.90;;;;;;15697170;22;20009;-38
2023/09/06 18:04:56;;;;;;;;;;;25.90;99.90;;;;;;15698213;22;19950;-36
2023/09/06 18:10:58;;;;;;;;;;;25.60;99.90;;;;;;15696871;22;19975;-36
2023/09/06 18:17:01;;;;;;;;;;;25.20;99.90;;;;;;15700542;22;20040;-36
2023/09/06 18:23:03;;;;;;;;;;;24.90;99.90;;;;;;15659600;22;20233;-37
2023/09/06 18:29:05;;;;;;;;;;;24.40;99.90;;;;;;15693026;22;19949;-36
2023/09/06 18:35:08;;;;;;;;;;;24.10;99.90;;;;;;15698747;22;19934;-36
2023/09/06 18:41:10;;;;;;;;;;;23.90;99.90;;;;;;15696386;22;19922;-35
2023/09/06 18:47:12;;;;;;;;;;;23.90;99.90;;;;;;15696366;22;20332;-35
2023/09/06 18:53:14;;;;;;;;;;;23.90;99.90;;;;;;15689954;22;20008;-35
2023/09/06 18:59:16;;;;;;;;;;;24.30;99.90;;;;;;15677616;22;19934;-36
2023/09/06 19:05:18;;;;;;;;;;;24.40;99.90;;;;;;15654018;22;19929;-37
2023/09/06 19:11:19;;;;;;;;;;;24.40;99.90;;;;;;15689711;22;20226;-36
2023/09/06 19:17:22;;;;;;;;;;;24.40;99.90;;;;;;15681174;22;19929;-36
2023/09/06 19:23:24;;;;;;;;;;;24.30;99.90;;;;;;15684883;22;20001;-37
2023/09/06 19:29:26;;;;;;;;;;;24.20;99.90;;;;;;15684644;22;19926;-36
2023/09/06 19:35:28;;;;;;;;;;;24.10;99.90;;;;;;15682372;22;19923;-35
2023/09/06 19:41:30;;;;;;;;;;;24.10;99.90;;;;;;15656463;22;19922;-37
2023/09/06 19:47:32;;;;;;;;;;;24.10;99.90;;;;;;15652073;22;20360;-36
2023/09/06 19:53:34;;;;;;;;;;;23.90;99.90;;;;;;15690358;22;20345;-36
2023/09/06 19:59:36;;;;;;;;;;;23.80;99.90;;;;;;15690833;22;19954;-36
2023/09/06 20:05:38;;;;;;;;;;;23.60;99.90;;;;;;15701829;22;20416;-36
2023/09/06 20:11:40;;;;;;;;;;;23.40;99.90;;;;;;15700278;22;19923;-36
2023/09/06 20:17:41;;;;;;;;;;;23.40;99.90;;;;;;15705198;22;20324;-38
2023/09/06 20:23:43;;;;;;;;;;;23.40;99.90;;;;;;15666267;22;19922;-37
2023/09/06 20:29:46;;;;;;;;;;;23.20;99.90;;;;;;15700242;22;19923;-35
2023/09/06 20:35:49;;;;;;;;;;;23.20;99.90;;;;;;15702532;22;20394;-36
2023/09/06 20:41:51;;;;;;;;;;;23.00;99.90;;;;;;15698913;22;19926;-37
2023/09/06 20:47:52;;;;;;;;;;;22.50;99.90;;;;;;15698734;22;19929;-36
2023/09/06 20:53:54;;;;;;;;;;;22.30;99.90;;;;;;15698593;22;19923;-37
2023/09/06 20:59:56;;;;;;;;;;;22.30;99.90;;;;;;15668608;22;19949;-36
2023/09/06 21:05:58;;;;;;;;;;;22.10;99.90;;;;;;15679037;22;19923;-37
2023/09/06 21:12:00;;;;;;;;;;;21.80;99.90;;;;;;15679064;22;19949;-36
2023/09/06 21:18:02;;;;;;;;;;;21.70;99.90;;;;;;15690486;22;19946;-36
2023/09/06 21:24:05;;;;;;;;;;;21.80;99.90;;;;;;15679479;22;20348;-36
2023/09/06 21:30:07;;;;;;;;;;;21.90;99.90;;;;;;15690701;22;19929;-36
2023/09/06 21:36:08;;;;;;;;;;;22.00;99.90;;;;;;15681714;22;19975;-36
2023/09/06 21:42:10;;;;;;;;;;;22.00;99.90;;;;;;15689854;22;19919;-36
2023/09/06 21:48:12;;;;;;;;;;;22.30;99.90;;;;;;15686770;22;20056;-36
2023/09/06 21:54:14;;;;;;;;;;;22.50;99.90;;;;;;15688162;22;19928;-37
2023/09/06 22:00:20;;;;;;;;;;;22.40;99.90;;;;;;15698724;22;20434;-36
2023/09/06 22:06:22;;;;;;;;;;;22.40;99.90;;;;;;15703538;22;20156;-36
2023/09/06 22:12:23;;;;;;;;;;;22.20;99.90;;;;;;15674717;22;19988;-36
2023/09/06 22:18:25;;;;;;;;;;;22.10;99.90;;;;;;15704290;22;20331;-37
2023/09/06 22:24:27;;;;;;;;;;;21.90;99.90;;;;;;15703395;22;19922;-36
2023/09/06 22:30:28;;;;;;;;;;;21.70;99.90;;;;;;15701854;22;19929;-35
2023/09/06 22:36:30;;;;;;;;;;;21.60;99.90;;;;;;15702475;22;20591;-35
2023/09/06 22:42:33;;;;;;;;;;;21.40;99.90;;;;;;15703990;22;20803;-35
2023/09/06 22:48:36;;;;;;;;;;;21.20;99.90;;;;;;15674150;22;19965;-35
2023/09/06 22:54:44;;;;;;;;;;;21.20;99.90;;;;;;15700818;22;19929;-37
2023/09/06 23:00:46;;;;;;;;;;;20.90;99.90;;;;;;15644441;22;20270;-36
2023/09/06 23:06:48;;;;;;;;;;;20.80;99.90;;;;;;15673471;22;19922;-36
2023/09/06 23:12:51;;;;;;;;;;;20.80;99.90;;;;;;15680540;22;19954;-36
2023/09/06 23:18:56;;;;;;;;;;;20.70;99.90;;;;;;15680709;22;20605;-36
2023/09/06 23:24:58;;;;;;;;;;;20.70;99.90;;;;;;15677794;22;19930;-35
2023/09/06 23:31:03;;;;;;;;;;;20.70;99.90;;;;;;15677109;22;19937;-35
2023/09/06 23:37:07;;;;;;;;;;;20.70;99.90;;;;;;15682414;22;19960;-35
2023/09/06 23:43:09;;;;;;;;;;;20.60;99.90;;;;;;15680514;22;19945;-37
2023/09/06 23:49:11;;;;;;;;;;;20.50;99.90;;;;;;15654016;22;20331;-37
2023/09/06 23:55:13;;;;;;;;;;;20.20;99.90;;;;;;15687655;22;19937;-35
